Time;durP1;ratioP1;P1;durP2;ratioP2;P2;SDS_P1;SDS_P2;PMS_P1;PMS_P2;Temp;Humidity;BMP_temperature;BMP_pressure;BME280_temperature;BME280_humidity;BME280_pressure;Samples;Min_cycle;Max_cycle;Signal;HPM_P1;HPM_P2
2023/12/07 00:02:21;;;;;;;27.00;21.53;;;0.70;83.20;;;;;;7673945;23;20215;-83
2023/12/07 00:05:28;;;;;;;28.47;21.27;;;0.80;83.10;;;;;;7676303;23;20218;-83
2023/12/07 00:08:31;;;;;;;27.90;21.60;;;0.80;83.10;;;;;;7681622;23;20242;-82
2023/12/07 00:11:34;;;;;;;26.20;21.07;;;0.70;83.20;;;;;;7681805;23;20222;-84
2023/12/07 00:14:38;;;;;;;29.53;23.53;;;0.80;83.30;;;;;;7680457;23;20226;-84
2023/12/07 00:17:42;;;;;;;25.40;21.00;;;0.80;83.20;;;;;;7670982;23;20225;-82
2023/12/07 00:20:46;;;;;;;24.83;20.10;;;0.80;83.10;;;;;;7676523;23;20211;-84
2023/12/07 00:23:49;;;;;;;23.67;20.33;;;0.80;83.20;;;;;;7662202;23;20800;-85
2023/12/07 00:26:53;;;;;;;28.57;22.70;;;0.80;83.20;;;;;;7675127;23;20211;-83
2023/12/07 00:29:56;;;;;;;26.90;22.17;;;0.80;83.30;;;;;;7656243;23;20806;-83
2023/12/07 00:33:01;;;;;;;27.63;21.33;;;0.80;83.30;;;;;;7670176;23;20211;-83
2023/12/07 00:36:04;;;;;;;26.30;21.53;;;0.80;83.30;;;;;;7658448;23;20218;-86
2023/12/07 00:39:08;;;;;;;29.27;21.97;;;0.80;83.20;;;;;;7669674;23;20215;-86
2023/12/07 00:42:11;;;;;;;27.40;21.77;;;0.80;83.20;;;;;;7670757;23;20210;-85
2023/12/07 00:45:15;;;;;;;27.33;22.07;;;0.80;83.30;;;;;;7657477;23;20640;-85
2023/12/07 00:48:19;;;;;;;27.53;22.47;;;0.90;83.20;;;;;;7671244;23;20221;-84
2023/12/07 00:51:23;;;;;;;28.77;21.37;;;0.80;83.20;;;;;;7669957;23;20215;-85
2023/12/07 00:54:29;;;;;;;29.17;22.47;;;0.80;83.20;;;;;;7656628;23;20215;-86
2023/12/07 00:57:32;;;;;;;28.43;22.23;;;0.70;83.50;;;;;;7671447;23;20248;-87
2023/12/07 01:00:36;;;;;;;29.03;22.40;;;0.60;83.60;;;;;;7671397;23;20601;-83
2023/12/07 01:03:41;;;;;;;28.60;22.60;;;0.60;83.70;;;;;;7670852;23;20653;-86
2023/12/07 01:06:45;;;;;;;25.97;22.00;;;0.60;83.90;;;;;;7670749;23;20213;-85
2023/12/07 01:09:48;;;;;;;27.20;22.03;;;0.60;84.00;;;;;;7671028;23;20225;-82
2023/12/07 01:12:51;;;;;;;27.43;20.97;;;0.60;83.90;;;;;;7670176;23;20209;-87
2023/12/07 01:15:55;;;;;;;28.27;22.97;;;0.70;83.90;;;;;;7655925;23;20700;-82
2023/12/07 01:18:59;;;;;;;25.63;21.03;;;0.80;83.70;;;;;;7645005;23;20211;-84
2023/12/07 01:22:03;;;;;;;28.80;22.43;;;0.80;83.50;;;;;;7671813;23;20217;-86
2023/12/07 01:25:07;;;;;;;29.23;21.83;;;0.80;83.60;;;;;;7671845;23;20287;-85
2023/12/07 01:28:10;;;;;;;23.63;20.47;;;0.80;83.50;;;;;;7672862;23;20221;-86
2023/12/07 01:31:13;;;;;;;25.60;20.53;;;0.80;83.60;;;;;;7670475;23;20211;-85
2023/12/07 01:34:19;;;;;;;30.10;22.23;;;0.80;83.60;;;;;;7671338;23;20290;-87
2023/12/07 01:37:22;;;;;;;27.33;21.60;;;0.80;83.70;;;;;;7672141;23;20266;-85
2023/12/07 01:40:25;;;;;;;30.13;23.00;;;0.80;83.60;;;;;;7670119;23;20214;-86
2023/12/07 01:43:28;;;;;;;27.17;22.20;;;0.80;83.50;;;;;;7668989;23;20763;-85
2023/12/07 01:46:32;;;;;;;26.07;21.43;;;0.90;83.30;;;;;;7669390;23;20230;-85
2023/12/07 01:49:38;;;;;;;28.47;22.63;;;0.80;83.10;;;;;;7670173;23;20272;-85
2023/12/07 01:52:44;;;;;;;26.30;20.93;;;0.80;83.30;;;;;;7669597;23;20320;-84
2023/12/07 01:55:48;;;;;;;28.37;21.83;;;0.80;83.20;;;;;;7670328;23;20607;-83
2023/12/07 01:58:51;;;;;;;29.97;22.53;;;0.80;83.20;;;;;;7670726;23;20210;-84
2023/12/07 02:01:55;;;;;;;28.47;22.00;;;0.80;83.40;;;;;;7668584;23;20708;-84
2023/12/07 02:04:59;;;;;;;26.93;20.97;;;0.80;83.30;;;;;;7668977;23;20210;-84
2023/12/07 02:08:03;;;;;;;26.40;20.60;;;0.80;83.30;;;;;;7670178;23;20555;-88
2023/12/07 02:11:06;;;;;;;27.37;21.27;;;0.80;83.40;;;;;;7669635;23;20225;-85
2023/12/07 02:14:09;;;;;;;27.63;21.50;;;0.80;83.50;;;;;;7670064;23;20313;-84
2023/12/07 02:17:18;;;;;;;28.07;22.10;;;0.80;83.50;;;;;;7669622;23;20276;-84
2023/12/07 02:20:30;;;;;;;25.63;20.93;;;0.80;83.50;;;;;;7669885;23;20226;-84
2023/12/07 02:23:34;;;;;;;28.03;22.17;;;0.80;83.40;;;;;;7655809;23;20219;-84
2023/12/07 02:26:52;;;;;;;26.40;22.10;;;0.80;83.40;;;;;;7635888;23;20560;-86
2023/12/07 02:29:55;;;;;;;25.23;20.77;;;0.70;83.50;;;;;;7652801;23;20215;-84
2023/12/07 02:32:59;;;;;;;24.97;19.93;;;0.80;83.60;;;;;;7667431;23;20215;-85
2023/12/07 02:36:02;;;;;;;28.67;21.50;;;0.80;83.60;;;;;;7667167;23;20215;-85
2023/12/07 02:39:08;;;;;;;26.17;21.77;;;0.70;83.70;;;;;;7669054;23;20207;-86
2023/12/07 02:42:14;;;;;;;31.43;22.93;;;0.70;83.80;;;;;;7669644;23;20297;-84
2023/12/07 02:45:17;;;;;;;28.60;21.93;;;0.70;83.60;;;;;;7669103;23;20715;-83
2023/12/07 02:48:21;;;;;;;27.83;20.87;;;0.70;83.70;;;;;;7655297;23;20230;-85
2023/12/07 02:51:24;;;;;;;30.80;22.33;;;0.60;83.70;;;;;;7668583;23;20238;-85
2023/12/07 02:54:28;;;;;;;28.93;22.83;;;0.70;83.70;;;;;;7667699;23;20221;-83
2023/12/07 02:57:33;;;;;;;25.73;20.97;;;0.70;83.70;;;;;;7668010;23;20217;-82
2023/12/07 03:00:36;;;;;;;26.03;21.03;;;0.70;83.70;;;;;;7667357;23;20223;-86
2023/12/07 03:03:41;;;;;;;24.60;20.03;;;0.70;83.70;;;;;;7633043;23;20212;-87
2023/12/07 03:06:45;;;;;;;30.07;22.27;;;0.80;83.70;;;;;;7613029;23;20306;-83
2023/12/07 03:09:48;;;;;;;28.63;23.10;;;0.80;83.70;;;;;;7633131;23;20583;-85
2023/12/07 03:12:52;;;;;;;29.00;23.30;;;0.70;83.60;;;;;;7632528;23;20700;-84
2023/12/07 03:15:56;;;;;;;30.27;23.40;;;0.60;83.70;;;;;;7631843;23;20225;-82
2023/12/07 03:19:01;;;;;;;29.03;22.47;;;0.60;83.70;;;;;;7630156;23;20219;-82
2023/12/07 03:22:06;;;;;;;29.93;23.53;;;0.70;83.50;;;;;;7632329;23;20307;-86
2023/12/07 03:25:10;;;;;;;30.13;23.37;;;0.60;83.40;;;;;;7631752;23;20219;-86
2023/12/07 03:28:14;;;;;;;30.47;22.43;;;0.70;83.30;;;;;;7632859;23;20217;-85
2023/12/07 03:31:18;;;;;;;30.63;22.53;;;0.60;83.20;;;;;;7632440;23;20312;-84
2023/12/07 03:34:21;;;;;;;30.50;22.90;;;0.60;83.30;;;;;;7632563;23;20232;-84
2023/12/07 03:37:24;;;;;;;30.63;23.37;;;0.60;83.30;;;;;;7631370;23;20226;-84
2023/12/07 03:40:27;;;;;;;29.90;22.80;;;0.60;83.20;;;;;;7630221;23;20211;-84
2023/12/07 03:43:32;;;;;;;31.43;23.97;;;0.60;83.30;;;;;;7631484;23;20788;-85
2023/12/07 03:46:35;;;;;;;31.57;23.77;;;0.60;83.20;;;;;;7631788;23;20298;-85
2023/12/07 03:49:41;;;;;;;30.07;23.00;;;0.70;83.00;;;;;;7631523;23;20219;-84
2023/12/07 03:52:44;;;;;;;31.47;23.27;;;0.60;83.10;;;;;;7628330;23;20333;-85
2023/12/07 03:55:47;;;;;;;30.43;23.90;;;0.80;82.90;;;;;;7639310;23;20653;-85
2023/12/07 03:58:52;;;;;;;30.03;23.10;;;0.80;82.60;;;;;;7630989;23;20295;-84
2023/12/07 04:01:55;;;;;;;32.63;22.50;;;0.80;82.60;;;;;;7630768;23;20219;-83
2023/12/07 04:05:01;;;;;;;33.83;24.17;;;0.70;82.70;;;;;;7631317;23;20219;-82
2023/12/07 04:08:05;;;;;;;33.33;24.37;;;0.70;82.80;;;;;;7632794;23;20277;-83
2023/12/07 04:11:10;;;;;;;32.03;23.47;;;0.80;82.80;;;;;;7631283;23;21066;-85
2023/12/07 04:14:15;;;;;;;29.70;23.30;;;0.70;82.80;;;;;;7632081;23;20215;-83
2023/12/07 04:17:18;;;;;;;31.17;22.73;;;0.80;82.60;;;;;;7631138;23;20235;-85
2023/12/07 04:20:21;;;;;;;34.10;24.83;;;0.80;82.70;;;;;;7631044;23;20215;-84
2023/12/07 04:23:24;;;;;;;35.37;24.87;;;0.70;82.80;;;;;;7609374;23;20215;-86
2023/12/07 04:26:28;;;;;;;33.37;24.57;;;0.60;83.00;;;;;;7631346;23;20286;-85
2023/12/07 04:29:32;;;;;;;33.67;23.97;;;0.60;83.00;;;;;;7632606;23;20219;-86
2023/12/07 04:32:35;;;;;;;35.60;24.23;;;0.80;83.00;;;;;;7626664;23;20230;-86
2023/12/07 04:35:41;;;;;;;35.50;25.00;;;0.70;82.90;;;;;;7631976;23;20226;-85
2023/12/07 04:38:44;;;;;;;38.60;26.43;;;0.70;83.00;;;;;;7630603;23;20211;-84
2023/12/07 04:41:47;;;;;;;37.20;26.47;;;0.80;82.90;;;;;;7627917;23;20214;-84
2023/12/07 04:44:52;;;;;;;36.53;25.43;;;0.80;82.80;;;;;;7629694;23;20215;-83
2023/12/07 04:47:57;;;;;;;38.03;25.80;;;0.80;82.80;;;;;;7628687;23;20724;-85
2023/12/07 04:51:00;;;;;;;41.40;27.57;;;0.80;82.80;;;;;;7627295;23;20834;-83
2023/12/07 04:54:03;;;;;;;37.10;25.37;;;0.70;82.80;;;;;;7629179;23;20297;-85
2023/12/07 04:57:18;;;;;;;41.77;25.77;;;0.80;82.90;;;;;;7629554;23;20282;-82
2023/12/07 05:00:23;;;;;;;36.47;24.60;;;0.80;83.00;;;;;;7630695;23;20675;-85
2023/12/07 05:03:26;;;;;;;30.47;22.30;;;0.80;83.00;;;;;;7630003;23;20683;-84
2023/12/07 05:06:29;;;;;;;35.50;22.43;;;0.80;82.90;;;;;;7628284;23;20207;-83
2023/12/07 05:09:33;;;;;;;32.77;22.90;;;0.80;82.90;;;;;;7629103;23;20232;-83
2023/12/07 05:12:36;;;;;;;34.50;24.07;;;0.80;82.50;;;;;;7629813;23;20222;-83
2023/12/07 05:15:41;;;;;;;38.17;23.73;;;0.80;82.50;;;;;;7629902;23;20244;-83
2023/12/07 05:18:45;;;;;;;37.20;24.10;;;0.70;82.60;;;;;;7630534;23;20207;-83
2023/12/07 05:21:48;;;;;;;36.13;24.20;;;0.80;82.60;;;;;;7622827;23;20211;-84
2023/12/07 05:24:52;;;;;;;33.63;23.40;;;0.80;82.70;;;;;;7631949;23;20221;-84
2023/12/07 05:27:55;;;;;;;32.43;22.27;;;0.80;82.50;;;;;;7631366;23;20211;-83
2023/12/07 05:31:00;;;;;;;32.07;22.17;;;0.80;82.50;;;;;;7615495;23;20290;-84
2023/12/07 05:34:03;;;;;;;30.10;21.70;;;0.80;82.30;;;;;;7633229;23;20234;-84
2023/12/07 05:37:08;;;;;;;30.03;21.90;;;0.80;82.40;;;;;;7620157;23;20215;-86
2023/12/07 05:40:12;;;;;;;29.30;21.03;;;0.80;82.40;;;;;;7652463;23;20211;-84
2023/12/07 05:43:16;;;;;;;34.20;22.20;;;0.90;82.50;;;;;;7632656;23;20258;-84
2023/12/07 05:46:22;;;;;;;33.27;22.80;;;0.80;82.40;;;;;;7631853;23;20579;-80
2023/12/07 05:49:27;;;;;;;32.97;22.57;;;0.80;82.20;;;;;;7629336;23;20231;-85
2023/12/07 05:52:30;;;;;;;35.63;23.57;;;0.80;82.20;;;;;;7629539;23;20211;-82
2023/12/07 05:55:34;;;;;;;35.67;24.33;;;0.80;82.10;;;;;;7631547;23;20858;-83
2023/12/07 05:58:37;;;;;;;36.97;23.00;;;0.80;82.30;;;;;;7638302;23;20721;-83
2023/12/07 06:01:42;;;;;;;35.43;24.60;;;0.90;82.20;;;;;;7626421;23;20219;-84
2023/12/07 06:04:46;;;;;;;37.80;24.03;;;0.90;82.20;;;;;;7631711;23;20215;-84
2023/12/07 06:07:49;;;;;;;32.23;22.47;;;1.00;82.30;;;;;;7630913;23;20216;-83
2023/12/07 06:10:54;;;;;;;36.80;23.77;;;1.00;82.10;;;;;;7632270;23;20211;-83
2023/12/07 06:13:58;;;;;;;39.07;23.93;;;1.00;81.90;;;;;;7623680;23;20286;-83
2023/12/07 06:17:04;;;;;;;34.17;22.90;;;1.00;81.90;;;;;;7628136;23;20269;-82
2023/12/07 06:20:08;;;;;;;36.57;23.03;;;1.00;81.70;;;;;;7619644;23;20725;-83
2023/12/07 06:23:12;;;;;;;40.20;24.60;;;1.00;81.70;;;;;;7622093;23;20223;-86
2023/12/07 06:26:17;;;;;;;33.43;23.10;;;1.00;81.80;;;;;;7631993;23;20227;-83
2023/12/07 06:29:20;;;;;;;34.63;23.50;;;1.00;81.80;;;;;;7634791;23;20211;-84
2023/12/07 06:32:25;;;;;;;33.33;22.77;;;1.00;81.80;;;;;;7634073;23;20212;-84
2023/12/07 06:35:29;;;;;;;33.90;22.37;;;1.00;81.80;;;;;;7632932;23;20220;-84
2023/12/07 06:38:32;;;;;;;32.93;21.90;;;0.90;81.90;;;;;;7633446;23;20690;-84
2023/12/07 06:41:35;;;;;;;35.57;22.80;;;0.90;81.90;;;;;;7632403;23;20281;-85
2023/12/07 06:44:38;;;;;;;34.53;22.60;;;0.90;81.90;;;;;;7632497;23;20211;-84
2023/12/07 06:47:43;;;;;;;37.67;22.97;;;0.80;81.90;;;;;;7632574;23;20266;-83
2023/12/07 06:50:46;;;;;;;37.50;22.87;;;0.80;82.10;;;;;;7632269;23;20291;-84
2023/12/07 06:53:50;;;;;;;34.20;21.77;;;0.70;82.40;;;;;;7632716;23;20732;-84
2023/12/07 06:56:53;;;;;;;34.83;22.80;;;0.80;82.40;;;;;;7635178;23;20219;-83
2023/12/07 06:59:56;;;;;;;39.50;23.10;;;0.80;82.30;;;;;;7635414;23;20207;-83
2023/12/07 07:03:01;;;;;;;32.03;21.97;;;0.80;82.20;;;;;;7637982;23;20222;-87
2023/12/07 07:06:04;;;;;;;31.57;20.53;;;0.80;82.20;;;;;;7663999;23;20579;-85
2023/12/07 07:09:08;;;;;;;38.43;22.73;;;0.80;82.20;;;;;;7670399;23;20247;-84
2023/12/07 07:12:11;;;;;;;32.57;21.73;;;0.80;82.20;;;;;;7669658;23;20218;-84
2023/12/07 07:15:14;;;;;;;36.70;22.80;;;0.90;82.20;;;;;;7668391;23;20597;-84
2023/12/07 07:18:20;;;;;;;33.37;20.80;;;0.80;82.20;;;;;;7667494;23;20685;-84
2023/12/07 07:21:23;;;;;;;36.90;22.73;;;0.90;82.30;;;;;;7668435;23;20207;-83
2023/12/07 07:24:28;;;;;;;35.53;22.20;;;1.00;82.10;;;;;;7667605;23;20214;-82
2023/12/07 07:27:31;;;;;;;31.37;20.23;;;1.00;81.80;;;;;;7668169;23;20767;-85
2023/12/07 07:30:34;;;;;;;33.77;21.40;;;1.00;81.60;;;;;;7642250;23;20218;-84
2023/12/07 07:33:39;;;;;;;36.00;21.53;;;1.00;81.70;;;;;;7653982;23;20223;-84
2023/12/07 07:36:43;;;;;;;36.17;21.87;;;1.00;81.60;;;;;;7668070;23;20234;-83
2023/12/07 07:39:46;;;;;;;34.67;21.93;;;0.90;81.80;;;;;;7654345;23;20215;-84
2023/12/07 07:42:50;;;;;;;34.90;21.37;;;0.90;82.10;;;;;;7668884;23;20211;-84
2023/12/07 07:45:58;;;;;;;38.20;22.43;;;1.00;82.10;;;;;;7672910;23;20214;-82
2023/12/07 07:49:06;;;;;;;33.17;21.23;;;1.00;81.90;;;;;;7616411;23;20210;-82
2023/12/07 07:52:14;;;;;;;37.17;23.43;;;1.00;81.60;;;;;;7632293;23;20207;-82
2023/12/07 07:55:17;;;;;;;37.73;23.40;;;1.00;81.60;;;;;;7631917;23;20559;-84
2023/12/07 07:58:21;;;;;;;38.43;23.77;;;1.00;81.50;;;;;;7631832;23;20215;-83
2023/12/07 08:01:24;;;;;;;35.27;22.37;;;1.00;81.60;;;;;;7629054;23;20414;-85
2023/12/07 08:04:29;;;;;;;35.73;21.83;;;1.00;81.80;;;;;;7629029;23;20263;-84
2023/12/07 08:07:32;;;;;;;38.30;22.90;;;1.00;81.80;;;;;;7639425;23;20280;-84
2023/12/07 08:10:36;;;;;;;34.67;22.67;;;1.00;81.60;;;;;;7650766;23;20281;-83
2023/12/07 08:13:58;;;;;;;35.23;23.70;;;1.00;81.60;;;;;;7633193;23;20270;-83
2023/12/07 08:17:01;;;;;;;37.47;22.47;;;1.00;81.50;;;;;;7628953;23;20295;-84
2023/12/07 08:20:08;;;;;;;42.13;23.93;;;1.00;81.60;;;;;;7632588;23;20246;-85
2023/12/07 08:23:12;;;;;;;36.13;22.60;;;1.10;81.60;;;;;;7632629;23;20226;-84
2023/12/07 08:26:15;;;;;;;33.60;22.00;;;1.10;81.40;;;;;;7632114;23;20876;-83
2023/12/07 08:29:19;;;;;;;38.33;24.50;;;1.20;80.80;;;;;;7629723;23;20676;-78
2023/12/07 08:32:25;;;;;;;36.27;23.20;;;1.10;80.50;;;;;;7630168;23;20354;-84
2023/12/07 08:35:30;;;;;;;40.17;25.50;;;1.00;81.10;;;;;;7640707;23;20626;-83
2023/12/07 08:38:33;;;;;;;36.97;24.13;;;1.00;81.30;;;;;;7648539;23;20212;-82
2023/12/07 08:41:37;;;;;;;38.97;22.63;;;1.00;81.60;;;;;;7661003;23;20211;-83
2023/12/07 08:44:41;;;;;;;38.60;22.70;;;1.00;81.70;;;;;;7645229;23;20219;-82
2023/12/07 08:47:44;;;;;;;33.87;23.13;;;1.00;81.70;;;;;;7637993;23;20817;-85
2023/12/07 08:50:48;;;;;;;34.40;22.93;;;1.10;81.30;;;;;;7650195;23;20307;-83
2023/12/07 08:53:52;;;;;;;35.07;22.10;;;1.10;81.10;;;;;;7634211;23;20227;-85
2023/12/07 08:56:57;;;;;;;33.50;21.60;;;1.10;81.10;;;;;;7634135;23;20214;-85
2023/12/07 09:00:00;;;;;;;34.17;22.37;;;1.10;81.00;;;;;;7634776;23;20530;-83
2023/12/07 09:03:04;;;;;;;33.60;22.33;;;1.10;80.90;;;;;;7635930;23;20219;-84
2023/12/07 09:06:09;;;;;;;34.93;23.93;;;1.10;80.90;;;;;;7638847;23;20221;-83
2023/12/07 09:12:47;;;;;;;32.23;22.07;;;1.20;80.70;;;;;;7556130;23;20731;-85
2023/12/07 09:15:50;;;;;;;31.83;22.60;;;1.20;81.10;;;;;;7621199;23;20282;-86
2023/12/07 09:18:54;;;;;;;30.23;22.03;;;1.40;81.20;;;;;;7638711;23;20219;-85
2023/12/07 09:22:01;;;;;;;35.97;23.80;;;1.40;81.20;;;;;;7642354;23;20229;-86
2023/12/07 09:25:07;;;;;;;30.70;20.70;;;1.50;80.60;;;;;;7638622;23;20375;-85
2023/12/07 09:28:14;;;;;;;32.07;22.40;;;1.50;80.30;;;;;;7637402;23;20603;-85
2023/12/07 09:31:20;;;;;;;30.40;21.17;;;1.50;79.80;;;;;;7637314;23;20296;-87
2023/12/07 09:34:23;;;;;;;28.73;20.73;;;1.40;80.00;;;;;;7634406;23;20846;-86
2023/12/07 09:37:28;;;;;;;26.87;19.93;;;1.30;80.00;;;;;;7638685;23;20218;-86
2023/12/07 09:40:34;;;;;;;28.07;20.13;;;1.30;80.20;;;;;;7640551;23;20274;-87
2023/12/07 09:43:38;;;;;;;26.67;19.40;;;1.30;80.20;;;;;;7638126;23;20218;-86
2023/12/07 09:46:41;;;;;;;28.20;19.40;;;1.40;80.20;;;;;;7636448;23;20262;-85
2023/12/07 09:49:45;;;;;;;31.97;21.63;;;1.50;80.00;;;;;;7641649;23;20227;-87
2023/12/07 09:52:51;;;;;;;25.27;18.53;;;1.50;79.70;;;;;;7641361;23;20276;-86
2023/12/07 09:56:10;;;;;;;26.30;18.37;;;1.50;79.50;;;;;;7644127;23;20230;-84
2023/12/07 09:59:13;;;;;;;26.07;17.77;;;1.40;79.30;;;;;;7635953;23;20215;-86
2023/12/07 10:02:17;;;;;;;26.83;18.63;;;1.30;79.70;;;;;;7637635;23;20219;-85
2023/12/07 10:05:20;;;;;;;28.67;18.00;;;1.20;80.10;;;;;;7642414;23;20218;-86
2023/12/07 10:08:32;;;;;;;25.97;18.60;;;1.30;80.00;;;;;;7638757;23;20541;-87
2023/12/07 10:11:41;;;;;;;26.93;18.90;;;1.40;79.70;;;;;;7634280;23;20232;-85
2023/12/07 10:14:44;;;;;;;25.73;18.93;;;1.20;80.00;;;;;;7626927;23;20286;-86
2023/12/07 10:17:49;;;;;;;25.87;18.50;;;1.30;80.20;;;;;;7635758;23;20375;-87
2023/12/07 10:20:53;;;;;;;26.20;18.73;;;1.40;80.30;;;;;;7636185;23;20239;-85
2023/12/07 10:23:58;;;;;;;28.40;20.77;;;1.40;80.40;;;;;;7643722;23;20563;-85
2023/12/07 10:27:01;;;;;;;36.13;22.07;;;1.40;80.20;;;;;;7633919;23;20234;-86
2023/12/07 10:30:09;;;;;;;30.23;20.27;;;1.30;80.50;;;;;;7632470;23;20250;-85
2023/12/07 10:33:13;;;;;;;32.57;21.27;;;1.30;80.50;;;;;;7621490;23;20218;-86
2023/12/07 10:36:17;;;;;;;33.17;20.70;;;1.30;80.60;;;;;;7635348;23;20219;-86
2023/12/07 10:39:24;;;;;;;32.80;22.10;;;1.40;80.70;;;;;;7635888;23;20273;-85
2023/12/07 10:42:38;;;;;;;29.60;20.03;;;1.40;80.60;;;;;;7634274;23;20270;-86
2023/12/07 10:45:44;;;;;;;34.47;22.57;;;1.40;80.60;;;;;;7633145;23;20226;-85
2023/12/07 10:48:49;;;;;;;32.10;20.50;;;1.40;80.50;;;;;;7635348;23;20677;-86
2023/12/07 10:51:59;;;;;;;32.23;21.20;;;1.40;80.60;;;;;;7635978;23;20266;-84
2023/12/07 10:55:08;;;;;;;29.77;19.93;;;1.40;80.60;;;;;;7639368;23;20219;-86
2023/12/07 10:58:14;;;;;;;32.47;20.47;;;1.50;80.60;;;;;;7638511;23;20291;-86
2023/12/07 11:01:19;;;;;;;28.80;20.27;;;1.50;80.20;;;;;;7621988;23;20214;-87
2023/12/07 11:04:24;;;;;;;32.83;20.70;;;1.50;80.20;;;;;;7630111;23;20559;-86
2023/12/07 11:07:39;;;;;;;26.27;19.27;;;1.50;80.10;;;;;;7649625;23;20223;-87
2023/12/07 11:10:54;;;;;;;30.30;20.40;;;1.60;80.20;;;;;;7624566;23;20212;-85
2023/12/07 11:14:00;;;;;;;32.13;21.17;;;1.60;79.70;;;;;;7632250;23;20234;-87
2023/12/07 11:17:05;;;;;;;34.27;22.33;;;1.60;79.90;;;;;;7622900;23;20219;-86
2023/12/07 11:20:19;;;;;;;32.17;20.80;;;1.50;79.90;;;;;;7648632;23;20239;-86
2023/12/07 11:23:25;;;;;;;30.13;20.23;;;1.60;79.90;;;;;;7632652;23;20211;-86
2023/12/07 11:26:30;;;;;;;31.77;20.67;;;1.60;79.70;;;;;;7633080;23;20533;-86
2023/12/07 11:29:33;;;;;;;29.40;21.47;;;1.60;79.90;;;;;;7629565;23;20569;-87
2023/12/07 11:32:37;;;;;;;28.27;19.67;;;1.50;80.30;;;;;;7621339;23;20212;-87
2023/12/07 11:36:07;;;;;;;28.90;20.43;;;1.60;80.50;;;;;;7635690;23;20219;-87
2023/12/07 11:39:20;;;;;;;24.67;19.07;;;1.60;80.40;;;;;;7665173;23;20251;-86
2023/12/07 11:42:33;;;;;;;31.60;20.40;;;1.60;80.40;;;;;;7640016;23;20226;-86
2023/12/07 11:45:41;;;;;;;31.20;20.87;;;1.60;80.40;;;;;;7634805;23;20212;-86
2023/12/07 11:48:58;;;;;;;27.83;19.47;;;1.60;80.20;;;;;;7636385;23;20418;-85
2023/12/07 11:52:02;;;;;;;31.83;20.00;;;1.50;80.40;;;;;;7633005;23;20211;-88
2023/12/07 11:55:06;;;;;;;31.67;21.27;;;1.40;80.60;;;;;;7629948;23;20220;-86
2023/12/07 11:58:15;;;;;;;34.40;22.90;;;1.40;80.90;;;;;;7634127;23;20294;-85
2023/12/07 12:01:18;;;;;;;35.53;24.43;;;1.40;81.10;;;;;;7638068;23;20266;-86
2023/12/07 12:04:23;;;;;;;31.97;21.80;;;1.40;81.40;;;;;;7650868;23;20211;-86
2023/12/07 12:07:26;;;;;;;34.03;23.00;;;1.40;81.60;;;;;;7643421;23;20207;-85
2023/12/07 12:10:30;;;;;;;36.40;23.33;;;1.20;82.00;;;;;;7643352;23;20206;-87
2023/12/07 12:13:46;;;;;;;33.13;22.47;;;1.30;82.20;;;;;;7637308;23;20660;-87
2023/12/07 12:16:52;;;;;;;35.93;23.37;;;1.40;81.90;;;;;;7631110;23;20238;-87
2023/12/07 12:19:55;;;;;;;34.47;23.60;;;1.40;81.80;;;;;;7636259;23;20222;-86
2023/12/07 12:22:59;;;;;;;35.43;23.50;;;1.50;81.40;;;;;;7640145;23;20223;-85
2023/12/07 12:26:04;;;;;;;34.40;23.17;;;1.50;81.10;;;;;;7644355;23;20218;-89
2023/12/07 12:29:09;;;;;;;35.23;24.03;;;1.50;81.10;;;;;;7646076;23;20223;-84
2023/12/07 12:32:26;;;;;;;38.33;25.23;;;1.50;81.20;;;;;;7637413;23;20211;-87
2023/12/07 12:35:29;;;;;;;34.97;24.73;;;1.40;81.70;;;;;;7634068;23;20221;-87
2023/12/07 12:38:32;;;;;;;41.47;26.47;;;1.40;81.60;;;;;;7630928;23;20211;-88
2023/12/07 12:41:45;;;;;;;36.50;25.00;;;1.40;81.80;;;;;;7638130;23;20226;-86
2023/12/07 12:44:50;;;;;;;37.97;26.10;;;1.40;81.90;;;;;;7636087;23;20211;-86
2023/12/07 12:47:53;;;;;;;42.60;27.97;;;1.40;81.70;;;;;;7636189;23;20222;-85
2023/12/07 12:50:57;;;;;;;37.87;25.23;;;1.40;81.80;;;;;;7633458;23;20214;-86
2023/12/07 12:54:01;;;;;;;41.27;27.27;;;1.50;81.80;;;;;;7635677;23;20222;-85
2023/12/07 12:57:07;;;;;;;45.37;28.10;;;1.40;81.90;;;;;;7635094;23;20231;-85
2023/12/07 13:00:14;;;;;;;44.20;28.70;;;1.40;81.90;;;;;;7634469;23;20254;-88
2023/12/07 13:03:18;;;;;;;45.83;28.90;;;1.40;82.10;;;;;;7648933;23;20216;-85
2023/12/07 13:06:21;;;;;;;41.43;28.97;;;1.40;82.10;;;;;;7640725;23;20251;-85
2023/12/07 13:09:25;;;;;;;40.03;27.73;;;1.40;82.10;;;;;;7643422;23;20211;-85
2023/12/07 13:12:30;;;;;;;46.60;30.57;;;1.40;82.20;;;;;;7640952;23;20267;-86
2023/12/07 13:15:34;;;;;;;46.80;29.67;;;1.50;82.20;;;;;;7642526;23;20228;-85
2023/12/07 13:18:40;;;;;;;41.50;27.23;;;1.50;81.80;;;;;;7641403;23;20212;-85
2023/12/07 13:21:45;;;;;;;42.27;26.77;;;1.50;81.70;;;;;;7644186;23;20262;-86
2023/12/07 13:24:56;;;;;;;47.47;29.13;;;1.60;81.70;;;;;;7641819;23;20700;-86
2023/12/07 13:28:00;;;;;;;45.47;28.30;;;1.60;81.50;;;;;;7646879;23;20222;-87
2023/12/07 13:31:05;;;;;;;44.90;29.23;;;1.60;81.50;;;;;;7640840;23;20401;-86
2023/12/07 13:34:09;;;;;;;48.00;29.27;;;1.60;81.40;;;;;;7641052;23;20244;-84
2023/12/07 13:37:21;;;;;;;47.57;30.37;;;1.50;81.50;;;;;;7627683;23;20215;-84
2023/12/07 13:40:26;;;;;;;49.77;30.10;;;1.60;81.30;;;;;;7644098;23;20263;-86
2023/12/07 13:43:30;;;;;;;47.97;28.63;;;1.60;81.20;;;;;;7636312;23;20270;-87
2023/12/07 13:46:38;;;;;;;50.60;31.10;;;1.60;81.20;;;;;;7639380;23;20219;-85
2023/12/07 13:49:41;;;;;;;51.10;31.27;;;1.60;81.40;;;;;;7627831;23;20216;-87
2023/12/07 13:52:44;;;;;;;54.27;32.27;;;1.50;81.70;;;;;;7644269;23;20215;-84
2023/12/07 13:55:50;;;;;;;57.00;33.93;;;1.50;81.70;;;;;;7636653;23;20208;-84
2023/12/07 13:58:54;;;;;;;57.40;35.00;;;1.60;81.70;;;;;;7643470;23;20568;-86
2023/12/07 14:01:59;;;;;;;54.73;34.37;;;1.60;81.80;;;;;;7633649;23;20690;-86
2023/12/07 14:05:02;;;;;;;55.43;33.03;;;1.60;81.70;;;;;;7637535;23;20219;-86
2023/12/07 14:08:05;;;;;;;55.67;32.77;;;1.60;81.70;;;;;;7640757;23;20241;-85
2023/12/07 14:11:11;;;;;;;55.33;33.37;;;1.60;81.80;;;;;;7642217;23;20207;-87
2023/12/07 14:14:16;;;;;;;66.53;37.80;;;1.50;82.40;;;;;;7643238;23;20693;-86
2023/12/07 14:17:22;;;;;;;63.20;36.20;;;1.50;82.30;;;;;;7637977;23;20219;-86
2023/12/07 14:20:41;;;;;;;65.87;34.93;;;1.50;82.40;;;;;;7633523;23;20218;-87
2023/12/07 14:24:04;;;;;;;56.50;32.63;;;1.50;82.60;;;;;;7633413;23;20215;-86
2023/12/07 14:27:09;;;;;;;65.87;35.77;;;1.60;82.50;;;;;;7633064;23;20559;-84
2023/12/07 14:30:13;;;;;;;63.20;36.83;;;1.60;82.40;;;;;;7631313;23;20204;-83
2023/12/07 14:33:18;;;;;;;64.50;35.80;;;1.70;82.50;;;;;;7633006;23;20226;-83
2023/12/07 14:36:21;;;;;;;67.73;37.03;;;1.70;82.40;;;;;;7631275;23;20219;-86
2023/12/07 14:39:25;;;;;;;65.23;35.00;;;1.70;82.40;;;;;;7634219;23;20616;-85
2023/12/07 14:42:28;;;;;;;59.90;32.97;;;1.70;82.40;;;;;;7632245;23;20223;-83
2023/12/07 14:45:31;;;;;;;63.47;36.07;;;1.70;82.40;;;;;;7632584;23;20215;-83
2023/12/07 14:48:35;;;;;;;60.73;35.27;;;1.70;82.40;;;;;;7630627;23;20211;-83
2023/12/07 14:51:39;;;;;;;56.20;33.77;;;1.70;82.50;;;;;;7631259;23;20718;-84
2023/12/07 14:54:42;;;;;;;68.00;37.50;;;1.70;82.50;;;;;;7618818;23;20227;-84
2023/12/07 14:57:48;;;;;;;66.10;38.50;;;1.70;82.60;;;;;;7649961;23;20620;-84
2023/12/07 15:00:52;;;;;;;58.13;35.37;;;1.80;82.50;;;;;;7630208;23;20295;-83
2023/12/07 15:03:57;;;;;;;72.47;37.73;;;1.80;82.40;;;;;;7630567;23;20219;-84
2023/12/07 15:07:00;;;;;;;66.67;36.70;;;1.90;82.40;;;;;;7630056;23;20293;-83
2023/12/07 15:10:04;;;;;;;67.97;36.63;;;1.80;82.30;;;;;;7635366;23;20215;-83
2023/12/07 15:13:07;;;;;;;65.73;37.80;;;1.80;82.50;;;;;;7631584;23;20704;-86
2023/12/07 15:16:12;;;;;;;68.70;37.40;;;1.80;82.50;;;;;;7631045;23;20211;-84
2023/12/07 15:19:17;;;;;;;61.43;34.43;;;1.80;82.70;;;;;;7629752;23;20229;-86
2023/12/07 15:22:20;;;;;;;69.30;37.30;;;1.80;82.60;;;;;;7632418;23;20208;-85
2023/12/07 15:25:24;;;;;;;69.57;37.53;;;1.80;82.70;;;;;;7632273;23;20906;-84
2023/12/07 15:28:27;;;;;;;75.73;37.33;;;1.80;82.80;;;;;;7629128;23;20226;-85
2023/12/07 15:31:30;;;;;;;76.23;39.33;;;1.80;82.70;;;;;;7631131;23;20288;-84
2023/12/07 15:34:36;;;;;;;70.17;35.17;;;1.80;82.80;;;;;;7630569;23;20294;-84
2023/12/07 15:37:43;;;;;;;72.60;37.33;;;1.80;82.80;;;;;;7629539;23;20638;-83
2023/12/07 15:40:47;;;;;;;77.03;37.33;;;1.80;82.70;;;;;;7629563;23;20214;-86
2023/12/07 15:43:50;;;;;;;72.63;37.63;;;1.80;82.90;;;;;;7635063;23;20226;-85
2023/12/07 15:46:53;;;;;;;64.10;34.87;;;1.80;82.90;;;;;;7628608;23;20215;-85
2023/12/07 15:49:59;;;;;;;62.33;32.63;;;1.80;82.90;;;;;;7633049;23;20226;-86
2023/12/07 15:53:02;;;;;;;74.03;35.67;;;1.80;83.10;;;;;;7631887;23;20223;-85